sensor_id;sensor_type;location;lat;lon;timestamp;P1;durP1;ratioP1;P2;durP2;ratioP2
23270;SDS011;11804;51.118;17.058;2022-09-17T00:01:22;5.10;;;2.20;;
23270;SDS011;11804;51.118;17.058;2022-09-17T00:03:58;3.83;;;2.00;;
23270;SDS011;11804;51.118;17.058;2022-09-17T00:06:25;3.43;;;1.73;;
23270;SDS011;11804;51.118;17.058;2022-09-17T00:08:53;3.93;;;2.07;;
23270;SDS011;11804;51.118;17.058;2022-09-17T00:11:22;2.70;;;1.83;;
23270;SDS011;11804;51.118;17.058;2022-09-17T00:13:52;4.73;;;1.90;;
23270;SDS011;11804;51.118;17.058;2022-09-17T00:16:27;2.47;;;1.70;;
23270;SDS011;11804;51.118;17.058;2022-09-17T00:18:57;3.17;;;1.53;;
23270;SDS011;11804;51.118;17.058;2022-09-17T00:21:25;3.47;;;1.40;;
23270;SDS011;11804;51.118;17.058;2022-09-17T00:23:54;4.57;;;1.70;;
23270;SDS011;11804;51.118;17.058;2022-09-17T00:26:23;4.10;;;1.53;;
23270;SDS011;11804;51.118;17.058;2022-09-17T00:28:52;4.53;;;1.73;;
23270;SDS011;11804;51.118;17.058;2022-09-17T00:31:21;5.17;;;1.53;;
23270;SDS011;11804;51.118;17.058;2022-09-17T00:33:49;6.43;;;1.80;;
23270;SDS011;11804;51.118;17.058;2022-09-17T00:36:18;4.40;;;1.70;;
23270;SDS011;11804;51.118;17.058;2022-09-17T00:38:50;4.20;;;1.50;;
23270;SDS011;11804;51.118;17.058;2022-09-17T00:41:18;3.33;;;1.30;;
23270;SDS011;11804;51.118;17.058;2022-09-17T00:49:01;4.57;;;1.43;;
23270;SDS011;11804;51.118;17.058;2022-09-17T00:51:40;4.07;;;1.63;;
23270;SDS011;11804;51.118;17.058;2022-09-17T00:54:05;3.93;;;1.70;;
23270;SDS011;11804;51.118;17.058;2022-09-17T00:56:36;3.17;;;1.63;;
23270;SDS011;11804;51.118;17.058;2022-09-17T00:59:06;2.80;;;1.50;;
23270;SDS011;11804;51.118;17.058;2022-09-17T01:01:34;3.50;;;1.57;;
23270;SDS011;11804;51.118;17.058;2022-09-17T01:04:03;5.03;;;1.70;;
23270;SDS011;11804;51.118;17.058;2022-09-17T01:06:32;5.23;;;2.07;;
23270;SDS011;11804;51.118;17.058;2022-09-17T01:17:40;3.33;;;1.37;;
23270;SDS011;11804;51.118;17.058;2022-09-17T01:22:55;3.40;;;1.40;;
23270;SDS011;11804;51.118;17.058;2022-09-17T01:25:30;4.30;;;1.80;;
23270;SDS011;11804;51.118;17.058;2022-09-17T01:33:24;3.63;;;1.47;;
23270;SDS011;11804;51.118;17.058;2022-09-17T01:41:44;3.73;;;1.20;;
23270;SDS011;11804;51.118;17.058;2022-09-17T01:47:14;2.90;;;1.70;;
23270;SDS011;11804;51.118;17.058;2022-09-17T01:49:38;4.10;;;1.30;;
23270;SDS011;11804;51.118;17.058;2022-09-17T01:52:06;3.23;;;1.40;;
23270;SDS011;11804;51.118;17.058;2022-09-17T01:54:38;4.77;;;1.40;;
23270;SDS011;11804;51.118;17.058;2022-09-17T02:00:03;3.03;;;1.50;;
23270;SDS011;11804;51.118;17.058;2022-09-17T02:02:40;3.63;;;1.67;;
23270;SDS011;11804;51.118;17.058;2022-09-17T02:07:57;3.77;;;1.70;;
23270;SDS011;11804;51.118;17.058;2022-09-17T02:10:33;1.93;;;1.50;;
23270;SDS011;11804;51.118;17.058;2022-09-17T02:13:09;4.27;;;1.40;;
23270;SDS011;11804;51.118;17.058;2022-09-17T02:15:45;4.70;;;1.67;;
23270;SDS011;11804;51.118;17.058;2022-09-17T02:20:45;4.27;;;1.83;;
23270;SDS011;11804;51.118;17.058;2022-09-17T02:23:24;2.97;;;1.60;;
23270;SDS011;11804;51.118;17.058;2022-09-17T02:25:52;2.27;;;1.50;;
23270;SDS011;11804;51.118;17.058;2022-09-17T02:28:32;3.00;;;1.60;;
23270;SDS011;11804;51.118;17.058;2022-09-17T02:31:00;2.53;;;1.53;;
23270;SDS011;11804;51.118;17.058;2022-09-17T02:33:29;5.13;;;2.07;;
23270;SDS011;11804;51.118;17.058;2022-09-17T02:35:58;4.80;;;1.93;;
23270;SDS011;11804;51.118;17.058;2022-09-17T02:38:27;5.10;;;1.70;;
23270;SDS011;11804;51.118;17.058;2022-09-17T02:41:06;3.50;;;1.70;;
23270;SDS011;11804;51.118;17.058;2022-09-17T02:43:54;2.50;;;1.50;;
23270;SDS011;11804;51.118;17.058;2022-09-17T02:55:01;2.60;;;1.70;;
23270;SDS011;11804;51.118;17.058;2022-09-17T02:57:53;1.93;;;1.73;;
23270;SDS011;11804;51.118;17.058;2022-09-17T03:00:19;5.03;;;1.50;;
23270;SDS011;11804;51.118;17.058;2022-09-17T03:02:49;3.63;;;1.60;;
23270;SDS011;11804;51.118;17.058;2022-09-17T03:05:26;4.20;;;1.70;;
23270;SDS011;11804;51.118;17.058;2022-09-17T03:07:55;2.97;;;1.97;;
23270;SDS011;11804;51.118;17.058;2022-09-17T03:10:24;4.10;;;2.13;;
23270;SDS011;11804;51.118;17.058;2022-09-17T03:12:54;3.13;;;1.83;;
23270;SDS011;11804;51.118;17.058;2022-09-17T03:15:22;4.97;;;1.97;;
23270;SDS011;11804;51.118;17.058;2022-09-17T03:17:49;3.50;;;1.90;;
23270;SDS011;11804;51.118;17.058;2022-09-17T03:20:17;4.97;;;1.80;;
23270;SDS011;11804;51.118;17.058;2022-09-17T03:22:44;2.93;;;1.80;;
23270;SDS011;11804;51.118;17.058;2022-09-17T03:25:12;4.53;;;2.00;;
23270;SDS011;11804;51.118;17.058;2022-09-17T03:27:39;3.63;;;1.80;;
23270;SDS011;11804;51.118;17.058;2022-09-17T03:30:07;2.93;;;1.70;;
23270;SDS011;11804;51.118;17.058;2022-09-17T03:32:36;3.67;;;1.67;;
23270;SDS011;11804;51.118;17.058;2022-09-17T03:35:04;5.23;;;1.80;;
23270;SDS011;11804;51.118;17.058;2022-09-17T03:37:33;5.97;;;2.00;;
23270;SDS011;11804;51.118;17.058;2022-09-17T03:40:01;4.20;;;1.77;;
23270;SDS011;11804;51.118;17.058;2022-09-17T03:42:29;2.63;;;1.90;;
23270;SDS011;11804;51.118;17.058;2022-09-17T03:44:56;2.60;;;1.77;;
23270;SDS011;11804;51.118;17.058;2022-09-17T03:47:24;5.70;;;1.50;;
23270;SDS011;11804;51.118;17.058;2022-09-17T03:49:52;3.77;;;1.67;;
23270;SDS011;11804;51.118;17.058;2022-09-17T03:52:20;5.63;;;2.17;;
23270;SDS011;11804;51.118;17.058;2022-09-17T03:54:47;2.97;;;1.77;;
23270;SDS011;11804;51.118;17.058;2022-09-17T03:57:15;4.03;;;1.80;;
23270;SDS011;11804;51.118;17.058;2022-09-17T03:59:43;3.97;;;1.50;;
23270;SDS011;11804;51.118;17.058;2022-09-17T04:02:12;2.77;;;1.60;;
23270;SDS011;11804;51.118;17.058;2022-09-17T04:04:39;4.63;;;1.90;;
23270;SDS011;11804;51.118;17.058;2022-09-17T04:07:07;2.30;;;1.40;;
23270;SDS011;11804;51.118;17.058;2022-09-17T04:09:34;2.73;;;1.50;;
23270;SDS011;11804;51.118;17.058;2022-09-17T04:12:02;3.83;;;1.70;;
23270;SDS011;11804;51.118;17.058;2022-09-17T04:14:30;3.20;;;1.77;;
23270;SDS011;11804;51.118;17.058;2022-09-17T04:16:58;9.13;;;2.00;;
23270;SDS011;11804;51.118;17.058;2022-09-17T04:19:26;3.83;;;1.90;;
23270;SDS011;11804;51.118;17.058;2022-09-17T04:21:54;3.27;;;1.70;;
23270;SDS011;11804;51.118;17.058;2022-09-17T04:24:23;3.93;;;1.80;;
23270;SDS011;11804;51.118;17.058;2022-09-17T04:26:50;3.60;;;1.83;;
23270;SDS011;11804;51.118;17.058;2022-09-17T04:29:18;4.07;;;1.90;;
23270;SDS011;11804;51.118;17.058;2022-09-17T04:31:45;2.50;;;1.90;;
23270;SDS011;11804;51.118;17.058;2022-09-17T04:34:13;5.37;;;1.90;;
23270;SDS011;11804;51.118;17.058;2022-09-17T04:36:40;4.13;;;2.07;;
23270;SDS011;11804;51.118;17.058;2022-09-17T04:39:08;5.23;;;2.20;;
23270;SDS011;11804;51.118;17.058;2022-09-17T04:41:35;3.90;;;1.97;;
23270;SDS011;11804;51.118;17.058;2022-09-17T04:44:03;6.10;;;2.00;;
23270;SDS011;11804;51.118;17.058;2022-09-17T04:46:32;3.93;;;2.10;;
23270;SDS011;11804;51.118;17.058;2022-09-17T04:49:00;3.93;;;1.97;;
23270;SDS011;11804;51.118;17.058;2022-09-17T04:51:27;3.97;;;2.10;;
23270;SDS011;11804;51.118;17.058;2022-09-17T04:53:55;3.50;;;1.90;;
23270;SDS011;11804;51.118;17.058;2022-09-17T04:56:22;3.67;;;1.80;;
23270;SDS011;11804;51.118;17.058;2022-09-17T04:58:50;2.40;;;2.10;;
23270;SDS011;11804;51.118;17.058;2022-09-17T05:01:17;3.60;;;1.83;;
23270;SDS011;11804;51.118;17.058;2022-09-17T05:03:45;6.50;;;2.10;;
23270;SDS011;11804;51.118;17.058;2022-09-17T05:06:13;4.67;;;2.10;;
23270;SDS011;11804;51.118;17.058;2022-09-17T05:08:40;4.93;;;2.27;;
23270;SDS011;11804;51.118;17.058;2022-09-17T05:11:08;3.60;;;2.20;;
23270;SDS011;11804;51.118;17.058;2022-09-17T05:13:36;3.40;;;2.20;;
23270;SDS011;11804;51.118;17.058;2022-09-17T05:16:04;4.13;;;1.80;;
23270;SDS011;11804;51.118;17.058;2022-09-17T05:18:31;3.63;;;2.03;;
23270;SDS011;11804;51.118;17.058;2022-09-17T05:20:59;4.00;;;2.03;;
23270;SDS011;11804;51.118;17.058;2022-09-17T05:23:26;8.30;;;2.40;;
23270;SDS011;11804;51.118;17.058;2022-09-17T05:25:57;4.70;;;2.00;;
23270;SDS011;11804;51.118;17.058;2022-09-17T05:28:26;4.70;;;2.10;;
23270;SDS011;11804;51.118;17.058;2022-09-17T05:30:57;6.53;;;1.90;;
23270;SDS011;11804;51.118;17.058;2022-09-17T05:33:26;4.03;;;1.97;;
23270;SDS011;11804;51.118;17.058;2022-09-17T05:35:54;3.47;;;2.13;;
23270;SDS011;11804;51.118;17.058;2022-09-17T05:38:22;3.27;;;1.80;;
23270;SDS011;11804;51.118;17.058;2022-09-17T05:40:49;3.43;;;1.90;;
23270;SDS011;11804;51.118;17.058;2022-09-17T05:43:17;7.33;;;2.20;;
23270;SDS011;11804;51.118;17.058;2022-09-17T05:45:45;4.33;;;2.23;;
23270;SDS011;11804;51.118;17.058;2022-09-17T05:48:13;5.67;;;2.13;;
23270;SDS011;11804;51.118;17.058;2022-09-17T05:50:41;4.40;;;2.00;;
23270;SDS011;11804;51.118;17.058;2022-09-17T05:53:12;6.53;;;2.43;;
23270;SDS011;11804;51.118;17.058;2022-09-17T05:55:40;4.70;;;2.13;;
23270;SDS011;11804;51.118;17.058;2022-09-17T05:58:11;7.00;;;2.50;;
23270;SDS011;11804;51.118;17.058;2022-09-17T06:00:38;6.60;;;2.57;;
23270;SDS011;11804;51.118;17.058;2022-09-17T06:05:36;5.53;;;2.33;;
23270;SDS011;11804;51.118;17.058;2022-09-17T06:08:04;10.83;;;3.80;;
23270;SDS011;11804;51.118;17.058;2022-09-17T06:10:38;9.20;;;2.90;;
23270;SDS011;11804;51.118;17.058;2022-09-17T06:13:02;4.73;;;2.27;;
23270;SDS011;11804;51.118;17.058;2022-09-17T06:15:30;7.20;;;3.07;;
23270;SDS011;11804;51.118;17.058;2022-09-17T06:17:57;6.60;;;2.90;;
23270;SDS011;11804;51.118;17.058;2022-09-17T06:20:26;6.40;;;2.20;;
23270;SDS011;11804;51.118;17.058;2022-09-17T06:22:57;8.80;;;2.50;;
23270;SDS011;11804;51.118;17.058;2022-09-17T06:25:24;6.13;;;2.40;;
23270;SDS011;11804;51.118;17.058;2022-09-17T06:27:54;27.20;;;3.97;;
23270;SDS011;11804;51.118;17.058;2022-09-17T06:30:21;7.10;;;2.50;;
23270;SDS011;11804;51.118;17.058;2022-09-17T06:32:49;5.50;;;2.73;;
23270;SDS011;11804;51.118;17.058;2022-09-17T06:35:16;5.90;;;2.80;;
23270;SDS011;11804;51.118;17.058;2022-09-17T06:37:44;8.37;;;3.13;;
23270;SDS011;11804;51.118;17.058;2022-09-17T06:40:12;8.90;;;3.00;;
23270;SDS011;11804;51.118;17.058;2022-09-17T06:42:40;5.77;;;2.80;;
23270;SDS011;11804;51.118;17.058;2022-09-17T06:45:11;6.47;;;2.80;;
23270;SDS011;11804;51.118;17.058;2022-09-17T06:47:38;7.00;;;2.80;;
23270;SDS011;11804;51.118;17.058;2022-09-17T06:50:06;5.77;;;2.50;;
23270;SDS011;11804;51.118;17.058;2022-09-17T06:52:35;5.97;;;2.33;;
23270;SDS011;11804;51.118;17.058;2022-09-17T06:55:03;5.37;;;2.90;;
23270;SDS011;11804;51.118;17.058;2022-09-17T06:57:31;6.83;;;2.73;;
23270;SDS011;11804;51.118;17.058;2022-09-17T06:59:59;12.63;;;3.00;;
23270;SDS011;11804;51.118;17.058;2022-09-17T07:02:26;5.77;;;2.97;;
23270;SDS011;11804;51.118;17.058;2022-09-17T07:04:54;8.43;;;2.97;;
23270;SDS011;11804;51.118;17.058;2022-09-17T07:07:22;7.17;;;2.87;;
23270;SDS011;11804;51.118;17.058;2022-09-17T07:09:49;5.60;;;2.90;;
23270;SDS011;11804;51.118;17.058;2022-09-17T07:12:18;11.23;;;3.50;;
23270;SDS011;11804;51.118;17.058;2022-09-17T07:14:47;8.30;;;3.10;;
23270;SDS011;11804;51.118;17.058;2022-09-17T07:17:14;7.23;;;3.23;;
23270;SDS011;11804;51.118;17.058;2022-09-17T07:19:42;14.57;;;3.67;;
23270;SDS011;11804;51.118;17.058;2022-09-17T07:22:09;6.83;;;3.40;;
23270;SDS011;11804;51.118;17.058;2022-09-17T07:24:38;5.70;;;3.00;;
23270;SDS011;11804;51.118;17.058;2022-09-17T07:27:06;8.67;;;3.07;;
23270;SDS011;11804;51.118;17.058;2022-09-17T07:29:34;7.53;;;2.93;;
23270;SDS011;11804;51.118;17.058;2022-09-17T07:32:01;6.83;;;2.80;;
23270;SDS011;11804;51.118;17.058;2022-09-17T07:34:29;8.40;;;2.80;;
23270;SDS011;11804;51.118;17.058;2022-09-17T07:36:56;12.20;;;3.30;;
23270;SDS011;11804;51.118;17.058;2022-09-17T07:39:24;7.93;;;2.90;;
23270;SDS011;11804;51.118;17.058;2022-09-17T07:41:51;6.00;;;3.03;;
23270;SDS011;11804;51.118;17.058;2022-09-17T07:44:19;6.43;;;2.70;;
23270;SDS011;11804;51.118;17.058;2022-09-17T07:46:47;4.43;;;2.80;;
23270;SDS011;11804;51.118;17.058;2022-09-17T07:49:14;8.23;;;3.10;;
23270;SDS011;11804;51.118;17.058;2022-09-17T07:51:42;6.50;;;2.70;;
23270;SDS011;11804;51.118;17.058;2022-09-17T07:54:10;10.37;;;3.10;;
23270;SDS011;11804;51.118;17.058;2022-09-17T07:56:37;12.23;;;3.90;;
23270;SDS011;11804;51.118;17.058;2022-09-17T07:59:05;9.13;;;3.03;;
23270;SDS011;11804;51.118;17.058;2022-09-17T08:01:32;6.30;;;2.70;;
23270;SDS011;11804;51.118;17.058;2022-09-17T08:04:01;6.97;;;2.93;;
23270;SDS011;11804;51.118;17.058;2022-09-17T08:06:29;7.03;;;2.67;;
23270;SDS011;11804;51.118;17.058;2022-09-17T08:08:58;8.00;;;3.33;;
23270;SDS011;11804;51.118;17.058;2022-09-17T08:11:26;11.33;;;3.20;;
23270;SDS011;11804;51.118;17.058;2022-09-17T08:13:55;7.17;;;2.37;;
23270;SDS011;11804;51.118;17.058;2022-09-17T08:16:23;8.40;;;2.70;;
23270;SDS011;11804;51.118;17.058;2022-09-17T08:18:54;6.70;;;2.77;;
23270;SDS011;11804;51.118;17.058;2022-09-17T08:21:23;7.00;;;2.70;;
23270;SDS011;11804;51.118;17.058;2022-09-17T08:23:50;6.50;;;2.40;;
23270;SDS011;11804;51.118;17.058;2022-09-17T08:26:19;9.13;;;3.00;;
23270;SDS011;11804;51.118;17.058;2022-09-17T08:28:51;4.37;;;2.80;;
23270;SDS011;11804;51.118;17.058;2022-09-17T08:31:26;6.10;;;2.70;;
23270;SDS011;11804;51.118;17.058;2022-09-17T08:33:51;7.83;;;2.77;;
23270;SDS011;11804;51.118;17.058;2022-09-17T08:36:19;4.47;;;2.50;;
23270;SDS011;11804;51.118;17.058;2022-09-17T08:38:51;9.53;;;3.30;;
23270;SDS011;11804;51.118;17.058;2022-09-17T08:41:35;9.20;;;3.40;;
23270;SDS011;11804;51.118;17.058;2022-09-17T08:46:51;5.00;;;2.80;;
23270;SDS011;11804;51.118;17.058;2022-09-17T08:49:40;6.63;;;3.70;;
23270;SDS011;11804;51.118;17.058;2022-09-17T08:55:22;7.63;;;3.40;;
23270;SDS011;11804;51.118;17.058;2022-09-17T08:58:00;7.40;;;3.13;;
23270;SDS011;11804;51.118;17.058;2022-09-17T09:00:48;7.67;;;3.10;;
23270;SDS011;11804;51.118;17.058;2022-09-17T09:06:18;7.07;;;3.20;;
23270;SDS011;11804;51.118;17.058;2022-09-17T09:08:49;7.90;;;3.53;;
23270;SDS011;11804;51.118;17.058;2022-09-17T09:11:23;14.63;;;3.93;;
23270;SDS011;11804;51.118;17.058;2022-09-17T09:13:54;6.83;;;3.37;;
23270;SDS011;11804;51.118;17.058;2022-09-17T09:16:27;9.20;;;4.40;;
23270;SDS011;11804;51.118;17.058;2022-09-17T09:19:09;6.23;;;4.03;;
23270;SDS011;11804;51.118;17.058;2022-09-17T09:22:12;8.77;;;4.20;;
23270;SDS011;11804;51.118;17.058;2022-09-17T09:24:41;8.27;;;3.90;;
23270;SDS011;11804;51.118;17.058;2022-09-17T09:27:26;6.23;;;4.70;;
23270;SDS011;11804;51.118;17.058;2022-09-17T09:30:03;6.00;;;4.60;;
23270;SDS011;11804;51.118;17.058;2022-09-17T09:33:15;9.27;;;4.50;;
23270;SDS011;11804;51.118;17.058;2022-09-17T09:35:18;6.87;;;4.23;;
23270;SDS011;11804;51.118;17.058;2022-09-17T09:37:54;11.93;;;4.73;;
23270;SDS011;11804;51.118;17.058;2022-09-17T09:43:24;8.07;;;5.30;;
23270;SDS011;11804;51.118;17.058;2022-09-17T09:46:15;7.13;;;4.70;;
23270;SDS011;11804;51.118;17.058;2022-09-17T09:51:57;10.10;;;5.30;;
23270;SDS011;11804;51.118;17.058;2022-09-17T09:54:34;8.60;;;5.63;;
23270;SDS011;11804;51.118;17.058;2022-09-17T09:57:05;6.67;;;4.43;;
23270;SDS011;11804;51.118;17.058;2022-09-17T09:59:32;6.63;;;4.27;;
23270;SDS011;11804;51.118;17.058;2022-09-17T10:02:03;7.90;;;4.70;;
23270;SDS011;11804;51.118;17.058;2022-09-17T10:04:31;8.80;;;4.70;;
23270;SDS011;11804;51.118;17.058;2022-09-17T10:06:59;7.07;;;4.47;;
23270;SDS011;11804;51.118;17.058;2022-09-17T10:09:33;11.13;;;4.60;;
23270;SDS011;11804;51.118;17.058;2022-09-17T10:12:14;5.87;;;4.07;;
23270;SDS011;11804;51.118;17.058;2022-09-17T10:14:39;7.53;;;3.87;;
23270;SDS011;11804;51.118;17.058;2022-09-17T10:17:20;6.00;;;3.50;;
23270;SDS011;11804;51.118;17.058;2022-09-17T10:22:31;6.87;;;3.97;;
23270;SDS011;11804;51.118;17.058;2022-09-17T10:25:00;5.83;;;4.13;;
23270;SDS011;11804;51.118;17.058;2022-09-17T10:27:30;6.67;;;4.17;;
23270;SDS011;11804;51.118;17.058;2022-09-17T10:30:03;8.80;;;4.00;;
23270;SDS011;11804;51.118;17.058;2022-09-17T10:32:34;8.93;;;4.57;;
23270;SDS011;11804;51.118;17.058;2022-09-17T10:37:46;5.97;;;3.90;;
23270;SDS011;11804;51.118;17.058;2022-09-17T10:42:49;9.77;;;3.27;;
23270;SDS011;11804;51.118;17.058;2022-09-17T10:45:28;6.00;;;3.83;;
23270;SDS011;11804;51.118;17.058;2022-09-17T10:47:58;7.10;;;3.50;;
23270;SDS011;11804;51.118;17.058;2022-09-17T10:50:27;6.63;;;3.13;;
23270;SDS011;11804;51.118;17.058;2022-09-17T10:53:03;5.00;;;3.13;;
23270;SDS011;11804;51.118;17.058;2022-09-17T10:55:34;5.30;;;3.30;;
23270;SDS011;11804;51.118;17.058;2022-09-17T11:01:06;4.70;;;2.70;;
23270;SDS011;11804;51.118;17.058;2022-09-17T11:14:35;4.33;;;2.20;;
23270;SDS011;11804;51.118;17.058;2022-09-17T11:17:12;6.80;;;2.15;;
23270;SDS011;11804;51.118;17.058;2022-09-17T11:19:57;3.27;;;2.00;;
23270;SDS011;11804;51.118;17.058;2022-09-17T11:22:22;5.62;;;2.20;;
23270;SDS011;11804;51.118;17.058;2022-09-17T11:30:42;2.83;;;1.70;;
23270;SDS011;11804;51.118;17.058;2022-09-17T11:33:55;4.87;;;1.73;;
23270;SDS011;11804;51.118;17.058;2022-09-17T11:38:52;3.80;;;1.80;;
23270;SDS011;11804;51.118;17.058;2022-09-17T11:41:22;4.07;;;1.80;;
23270;SDS011;11804;51.118;17.058;2022-09-17T11:44:09;4.90;;;1.87;;
23270;SDS011;11804;51.118;17.058;2022-09-17T11:46:45;3.47;;;2.20;;
23270;SDS011;11804;51.118;17.058;2022-09-17T11:51:47;3.45;;;1.80;;
23270;SDS011;11804;51.118;17.058;2022-09-17T11:56:57;4.77;;;2.50;;
23270;SDS011;11804;51.118;17.058;2022-09-17T11:59:37;7.92;;;2.45;;
23270;SDS011;11804;51.118;17.058;2022-09-17T12:02:20;4.00;;;2.37;;
23270;SDS011;11804;51.118;17.058;2022-09-17T12:04:47;5.17;;;2.37;;
23270;SDS011;11804;51.118;17.058;2022-09-17T12:07:30;7.67;;;2.10;;
23270;SDS011;11804;51.118;17.058;2022-09-17T12:12:56;5.35;;;2.00;;
23270;SDS011;11804;51.118;17.058;2022-09-17T12:15:48;2.63;;;1.30;;
23270;SDS011;11804;51.118;17.058;2022-09-17T12:18:31;4.37;;;1.70;;
23270;SDS011;11804;51.118;17.058;2022-09-17T12:21:03;9.55;;;1.67;;
23270;SDS011;11804;51.118;17.058;2022-09-17T12:23:37;3.00;;;1.50;;
23270;SDS011;11804;51.118;17.058;2022-09-17T12:31:35;4.58;;;1.85;;
23270;SDS011;11804;51.118;17.058;2022-09-17T12:37:04;8.63;;;2.25;;
23270;SDS011;11804;51.118;17.058;2022-09-17T12:50:21;3.17;;;1.00;;
23270;SDS011;11804;51.118;17.058;2022-09-17T12:53:05;4.40;;;1.40;;
23270;SDS011;11804;51.118;17.058;2022-09-17T12:55:41;3.00;;;1.62;;
23270;SDS011;11804;51.118;17.058;2022-09-17T13:01:15;3.03;;;1.13;;
23270;SDS011;11804;51.118;17.058;2022-09-17T13:06:41;3.98;;;1.40;;
23270;SDS011;11804;51.118;17.058;2022-09-17T13:12:05;5.22;;;1.65;;
23270;SDS011;11804;51.118;17.058;2022-09-17T13:20:25;4.03;;;1.43;;
23270;SDS011;11804;51.118;17.058;2022-09-17T13:22:55;2.60;;;1.20;;
23270;SDS011;11804;51.118;17.058;2022-09-17T13:25:24;3.00;;;1.05;;
23270;SDS011;11804;51.118;17.058;2022-09-17T13:28:08;2.87;;;0.80;;
23270;SDS011;11804;51.118;17.058;2022-09-17T13:39:32;4.92;;;1.35;;
23270;SDS011;11804;51.118;17.058;2022-09-17T13:42:08;2.92;;;1.10;;
23270;SDS011;11804;51.118;17.058;2022-09-17T13:44:39;4.40;;;1.20;;
23270;SDS011;11804;51.118;17.058;2022-09-17T13:49:57;5.97;;;1.72;;
23270;SDS011;11804;51.118;17.058;2022-09-17T13:52:34;4.85;;;2.12;;
23270;SDS011;11804;51.118;17.058;2022-09-17T13:58:10;5.65;;;1.95;;
23270;SDS011;11804;51.118;17.058;2022-09-17T14:00:58;5.37;;;1.97;;
23270;SDS011;11804;51.118;17.058;2022-09-17T14:13:58;5.80;;;1.73;;
23270;SDS011;11804;51.118;17.058;2022-09-17T14:16:39;3.17;;;1.50;;
23270;SDS011;11804;51.118;17.058;2022-09-17T14:21:55;4.33;;;2.10;;
23270;SDS011;11804;51.118;17.058;2022-09-17T14:24:37;3.93;;;2.20;;
23270;SDS011;11804;51.118;17.058;2022-09-17T14:40:45;6.17;;;2.90;;
23270;SDS011;11804;51.118;17.058;2022-09-17T14:43:59;4.93;;;2.50;;
23270;SDS011;11804;51.118;17.058;2022-09-17T14:45:47;3.98;;;1.80;;
23270;SDS011;11804;51.118;17.058;2022-09-17T14:51:18;5.53;;;2.00;;
23270;SDS011;11804;51.118;17.058;2022-09-17T14:54:28;3.40;;;1.35;;
23270;SDS011;11804;51.118;17.058;2022-09-17T14:56:38;4.30;;;1.80;;
23270;SDS011;11804;51.118;17.058;2022-09-17T14:59:02;7.07;;;1.83;;
23270;SDS011;11804;51.118;17.058;2022-09-17T15:01:31;3.53;;;1.30;;
23270;SDS011;11804;51.118;17.058;2022-09-17T15:06:46;3.73;;;1.40;;
23270;SDS011;11804;51.118;17.058;2022-09-17T15:09:17;4.07;;;1.40;;
23270;SDS011;11804;51.118;17.058;2022-09-17T15:11:54;3.90;;;1.40;;
23270;SDS011;11804;51.118;17.058;2022-09-17T15:14:21;2.40;;;1.20;;
23270;SDS011;11804;51.118;17.058;2022-09-17T15:16:53;3.63;;;1.30;;
23270;SDS011;11804;51.118;17.058;2022-09-17T15:19:23;5.83;;;1.50;;
23270;SDS011;11804;51.118;17.058;2022-09-17T15:21:54;4.87;;;1.03;;
23270;SDS011;11804;51.118;17.058;2022-09-17T15:24:29;3.13;;;1.10;;
23270;SDS011;11804;51.118;17.058;2022-09-17T15:26:54;5.13;;;1.43;;
23270;SDS011;11804;51.118;17.058;2022-09-17T15:29:25;3.80;;;1.50;;
23270;SDS011;11804;51.118;17.058;2022-09-17T15:31:55;3.77;;;1.67;;
23270;SDS011;11804;51.118;17.058;2022-09-17T15:34:26;14.87;;;1.87;;
23270;SDS011;11804;51.118;17.058;2022-09-17T15:39:39;7.53;;;1.87;;
23270;SDS011;11804;51.118;17.058;2022-09-17T15:42:26;4.97;;;1.87;;
23270;SDS011;11804;51.118;17.058;2022-09-17T15:50:21;6.03;;;1.40;;
23270;SDS011;11804;51.118;17.058;2022-09-17T15:55:40;2.60;;;1.33;;
23270;SDS011;11804;51.118;17.058;2022-09-17T15:58:23;5.40;;;2.20;;
23270;SDS011;11804;51.118;17.058;2022-09-17T16:08:51;1.97;;;1.50;;
23270;SDS011;11804;51.118;17.058;2022-09-17T16:11:24;2.87;;;1.00;;
23270;SDS011;11804;51.118;17.058;2022-09-17T16:13:54;3.80;;;1.27;;
23270;SDS011;11804;51.118;17.058;2022-09-17T16:16:29;3.03;;;1.30;;
23270;SDS011;11804;51.118;17.058;2022-09-17T16:18:55;6.73;;;1.60;;
23270;SDS011;11804;51.118;17.058;2022-09-17T16:21:25;3.73;;;1.90;;
23270;SDS011;11804;51.118;17.058;2022-09-17T16:23:54;3.43;;;1.70;;
23270;SDS011;11804;51.118;17.058;2022-09-17T16:26:29;1.57;;;1.40;;
23270;SDS011;11804;51.118;17.058;2022-09-17T16:29:03;5.57;;;2.10;;
23270;SDS011;11804;51.118;17.058;2022-09-17T16:31:33;3.43;;;1.70;;
23270;SDS011;11804;51.118;17.058;2022-09-17T16:34:00;4.47;;;1.53;;
23270;SDS011;11804;51.118;17.058;2022-09-17T16:36:28;3.87;;;2.27;;
23270;SDS011;11804;51.118;17.058;2022-09-17T16:38:57;4.13;;;1.60;;
23270;SDS011;11804;51.118;17.058;2022-09-17T16:41:25;6.40;;;2.60;;
23270;SDS011;11804;51.118;17.058;2022-09-17T16:43:53;4.70;;;2.23;;
23270;SDS011;11804;51.118;17.058;2022-09-17T16:46:22;3.67;;;2.17;;
23270;SDS011;11804;51.118;17.058;2022-09-17T16:48:49;5.10;;;1.80;;
23270;SDS011;11804;51.118;17.058;2022-09-17T16:51:17;3.80;;;1.60;;
23270;SDS011;11804;51.118;17.058;2022-09-17T16:53:44;6.83;;;1.67;;
23270;SDS011;11804;51.118;17.058;2022-09-17T16:56:13;4.53;;;1.30;;
23270;SDS011;11804;51.118;17.058;2022-09-17T16:58:41;3.20;;;1.30;;
23270;SDS011;11804;51.118;17.058;2022-09-17T17:01:12;3.07;;;1.37;;
23270;SDS011;11804;51.118;17.058;2022-09-17T17:03:42;3.00;;;1.60;;
23270;SDS011;11804;51.118;17.058;2022-09-17T17:06:14;4.43;;;1.50;;
23270;SDS011;11804;51.118;17.058;2022-09-17T17:08:43;5.13;;;1.63;;
23270;SDS011;11804;51.118;17.058;2022-09-17T17:11:11;5.87;;;1.60;;
23270;SDS011;11804;51.118;17.058;2022-09-17T17:13:42;6.67;;;2.00;;
23270;SDS011;11804;51.118;17.058;2022-09-17T17:16:11;3.73;;;1.57;;
23270;SDS011;11804;51.118;17.058;2022-09-17T17:18:41;4.87;;;1.77;;
23270;SDS011;11804;51.118;17.058;2022-09-17T17:21:11;4.63;;;1.70;;
23270;SDS011;11804;51.118;17.058;2022-09-17T17:23:39;3.90;;;1.37;;
23270;SDS011;11804;51.118;17.058;2022-09-17T17:26:12;5.10;;;1.43;;
23270;SDS011;11804;51.118;17.058;2022-09-17T17:28:41;4.40;;;1.60;;
23270;SDS011;11804;51.118;17.058;2022-09-17T17:31:09;5.23;;;1.50;;
23270;SDS011;11804;51.118;17.058;2022-09-17T17:33:37;5.70;;;1.67;;
23270;SDS011;11804;51.118;17.058;2022-09-17T17:36:05;6.47;;;1.90;;
23270;SDS011;11804;51.118;17.058;2022-09-17T17:38:33;4.27;;;1.60;;
23270;SDS011;11804;51.118;17.058;2022-09-17T17:41:05;10.50;;;2.10;;
23270;SDS011;11804;51.118;17.058;2022-09-17T17:43:37;6.97;;;1.60;;
23270;SDS011;11804;51.118;17.058;2022-09-17T17:46:06;3.83;;;1.60;;
23270;SDS011;11804;51.118;17.058;2022-09-17T17:48:35;4.33;;;1.90;;
23270;SDS011;11804;51.118;17.058;2022-09-17T17:51:04;6.20;;;1.97;;
23270;SDS011;11804;51.118;17.058;2022-09-17T17:53:33;5.50;;;2.10;;
23270;SDS011;11804;51.118;17.058;2022-09-17T17:56:03;5.37;;;2.03;;
23270;SDS011;11804;51.118;17.058;2022-09-17T17:58:38;3.83;;;1.90;;
23270;SDS011;11804;51.118;17.058;2022-09-17T18:01:09;4.80;;;2.17;;
23270;SDS011;11804;51.118;17.058;2022-09-17T18:04:01;6.93;;;2.80;;
23270;SDS011;11804;51.118;17.058;2022-09-17T18:06:27;4.57;;;2.60;;
23270;SDS011;11804;51.118;17.058;2022-09-17T18:08:55;5.83;;;1.90;;
23270;SDS011;11804;51.118;17.058;2022-09-17T18:11:23;3.07;;;1.50;;
23270;SDS011;11804;51.118;17.058;2022-09-17T18:13:52;4.83;;;1.97;;
23270;SDS011;11804;51.118;17.058;2022-09-17T18:16:21;6.87;;;2.30;;
23270;SDS011;11804;51.118;17.058;2022-09-17T18:18:49;5.27;;;2.20;;